This is the latest recevied weather packets stored in our database for station/object KC4BAM. If no packets are shown the sender has not sent any weather packets the latest 10 day(s).
| Time | Temp. | Humidity | Pressure | Rain* | Wind** | Luminosity | Snow |
|---|---|---|---|---|---|---|---|
| 1778045841 | 17.78° C | 91% | 997.7 hPa | 11.94 mm | - | 0 W/m² | - |
| 1778045540 | 18.33° C | 90% | 997.7 hPa | 10.67 mm | - | 0 W/m² | - |
| 1778045237 | 18.89° C | 89% | 997.6 hPa | 24.64 mm | - | 0 W/m² | - |
| 1778044935 | 18.89° C | 87% | 997.5 hPa | 25.91 mm | - | 0 W/m² | - |
| 1778044633 | 20° C | 83% | 996.9 hPa | 0 mm | - | 0 W/m² | - |
| 1778044329 | 20.56° C | 82% | 996.7 hPa | 0 mm | - | 0 W/m² | - |
| 1778044027 | 20° C | 82% | 996.6 hPa | 0 mm | - | 0 W/m² | - |
| 1778043723 | 20° C | 83% | 996.4 hPa | 0 mm | - | 0 W/m² | - |
| 1778043420 | 20° C | 83% | 996.5 hPa | 0 mm | - | 0 W/m² | - |
| 1778043117 | 20° C | 84% | 996.7 hPa | 0 mm | - | 0 W/m² | - |
| 1778042815 | 19.44° C | 84% | 996.6 hPa | 0 mm | - | 0 W/m² | - |
| 1778042511 | 19.44° C | 84% | 996.7 hPa | 0 mm | - | 0 W/m² | - |
| 1778042209 | 19.44° C | 84% | 996.7 hPa | 0 mm | - | 0 W/m² | - |
| 1778041906 | 19.44° C | 84% | 996.8 hPa | 0 mm | - | 0 W/m² | - |
| 1778041606 | 19.44° C | 85% | 997 hPa | 0 mm | - | 0 W/m² | - |
| 1778041303 | 19.44° C | 86% | 996.9 hPa | 0 mm | - | 0 W/m² | - |
| 1778041001 | 19.44° C | 86% | 996.9 hPa | 0 mm | - | 0 W/m² | - |
| 1778040698 | 18.89° C | 86% | 997.1 hPa | 0 mm | - | 0 W/m² | - |
| 1778040399 | 18.89° C | 86% | 997.1 hPa | 0 mm | - | 0 W/m² | - |
| 1778040092 | 18.89° C | 87% | 997 hPa | 0 mm | - | 0 W/m² | - |
| 1778039789 | 18.89° C | 87% | 997 hPa | 1.78 mm | - | 0 W/m² | - |
| 1778039485 | 18.89° C | 88% | 996.8 hPa | 1.78 mm | - | 0 W/m² | - |
| 1778039183 | 18.33° C | 88% | 997.3 hPa | 0 mm | - | 0 W/m² | - |
| 1778038880 | 18.33° C | 88% | 997.4 hPa | 0 mm | - | 0 W/m² | - |
| 1778038577 | 18.33° C | 89% | 997.3 hPa | 0 mm | - | 0 W/m² | - |
* Rain latest hour (hover to see other rain measurements)
** Current wind speed in m/s (hover to see current wind gust speed)